SKVVSKBO

Guest
Details From SKVV - VANGUARDIA
To SKBO - Bogota - El Dorado Intl
Flight Number -
Tags generated
Created
Modified
Stats Distance 47 nm / 86 km
Max Altitude 900 ft / 274 m
Waypoints 3
Social Downloads 3
Likes 0
Share VATSIM

Download

Looking for another format? Having issues loading an existing format? Contact us
Advertisement - Login to hide

Notes

Basic altitude profile: - Ascent Rate: 2500ft/min - Ascent Speed: 250kts - Cruise Altitude: 35000ft - Cruise Speed: 420kts - Descent Rate: 1500ft/min - Descent Speed: 250kts Options: - Use NATs: yes - Use PACOTS: yes - Use low airways: no - Use high airways: yes

Route

SKVV TEH SKBO

ID Type Via Altitude Latitude Longitude Leg Dist Tot Dist Heading (true) Name
O SKVV APT - 0 ft / 0 m 4.16787˚ -73.61376˚ - 0 nm - VANGUARDIA
TEH NDB - 900 ft / 274 m 4.62889˚ -74.14806˚ 42 nm 42 nm 311° / 311° TECHO NDB
O SKBO APT - 0 ft / 0 m 4.70159˚ -74.14695˚ 4 nm 46 nm 1° / 1° Bogota - El Dorado Intl

Altitude Profile

Advertisement - Login to hide

SKVV

Details ICAO SKVV (VVC)
Name VANGUARDIA
Region Colombia
Timezone America/Bogota (UTC-5.0)
Stats Elevation 1,394 ft / 425 m (AMSL)
Location 4.167875° -73.613760°
Runways 1
Magnetic Variation 7.554° W

METAR

SKVV 151400Z 00000KT 9999 SCT023 OVC090 24/20 A3000

Decode

TAF

Not found

Departure Runways

ID Width Length Bearing (true) Bearing (mag) Surface Threshold Offset Overrun Length
04 98 ft / 30 m 5,632 ft / 1,717 m 39.04° 46.59° Asphalt 0 ft / 0 m 0 ft / 0 m
22 98 ft / 30 m 5,632 ft / 1,717 m 219.04° 226.59° Asphalt 0 ft / 0 m 0 ft / 0 m

SKBO

Details ICAO SKBO (BOG)
Name Bogota - El Dorado Intl
Region Colombia
Timezone America/Bogota (UTC-5.0)
Stats Elevation 8,361 ft / 2,548 m (AMSL)
Location 4.701594° -74.146946°
Runways 2
Magnetic Variation 7.267° W

METAR

SKBO 151400Z VRB02KT 9999 SCT025 16/07 A3037

Decode

TAF

Not found

Destination Runways

ID Width Length Bearing (true) Bearing (mag) Surface Threshold Offset Overrun Length
13L 148 ft / 45 m 12,482 ft / 3,804 m 127.21° 134.48° Asphalt 0 ft / 0 m 0 ft / 0 m
13R 148 ft / 45 m 12,494 ft / 3,808 m 127.23° 134.50° Asphalt 0 ft / 0 m 200 ft / 61 m
31L 148 ft / 45 m 12,494 ft / 3,808 m 307.23° 314.50° Asphalt 0 ft / 0 m 190 ft / 58 m
31R 148 ft / 45 m 12,482 ft / 3,804 m 307.21° 314.48° Asphalt 0 ft / 0 m 0 ft / 0 m

Approach Navaids

Runway Type Ident Frequency Range Bearing (true) Bearing (mag) Slope Elevation
13L Localiser IEDR 111.30 MHz 18 nm / 33 km 127.21° 134.48° - 8,355 ft / 2,547 m (AMSL)
13L Glidescope IEDR 111.30 MHz 10 nm / 19 km 127.21° 134.48° 3.00° 8,357 ft / 2,547 m (AMSL)
13L DME IEDR 111.30 MHz 18 nm / 33 km - - - 8,361 ft / 2,548 m (AMSL)
13R Localiser IADO 110.70 MHz 18 nm / 33 km 127.23° 134.50° - 8,355 ft / 2,547 m (AMSL)
13R Glidescope IADO 110.70 MHz 10 nm / 19 km 127.23° 134.50° 3.00° 8,361 ft / 2,548 m (AMSL)
13R DME IADO 110.70 MHz 18 nm / 33 km - - - 8,361 ft / 2,548 m (AMSL)

Popular Alternatives